sensor_id;sensor_type;location;lat;lon;timestamp;pressure;altitude;pressure_sealevel;temperature;humidity
73910;BME280;62245;48.070;7.874;2023-05-10T03:01:09;98665.66;;;13.84;90.88
73910;BME280;62245;48.070;7.874;2023-05-10T03:03:34;98675.59;;;13.83;90.93
73910;BME280;62245;48.070;7.874;2023-05-10T03:06:00;98680.63;;;13.80;90.91
73910;BME280;62245;48.070;7.874;2023-05-10T03:08:25;98673.97;;;13.82;90.25
73910;BME280;62245;48.070;7.874;2023-05-10T03:11:23;98676.06;;;13.80;90.01
73910;BME280;62245;48.070;7.874;2023-05-10T03:14:10;98680.16;;;13.83;90.33
73910;BME280;62245;48.070;7.874;2023-05-10T03:16:42;98673.72;;;13.84;90.23
73910;BME280;62245;48.070;7.874;2023-05-10T03:19:16;98667.13;;;13.75;90.02
73910;BME280;62245;48.070;7.874;2023-05-10T03:21:47;98678.28;;;13.83;89.99
73910;BME280;62245;48.070;7.874;2023-05-10T03:24:15;98684.81;;;13.76;90.67
73910;BME280;62245;48.070;7.874;2023-05-10T03:26:43;98679.59;;;13.69;90.73
73910;BME280;62245;48.070;7.874;2023-05-10T03:29:10;98677.84;;;13.75;90.84
73910;BME280;62245;48.070;7.874;2023-05-10T03:31:36;98676.06;;;13.80;90.72
73910;BME280;62245;48.070;7.874;2023-05-10T03:34:02;98681.81;;;13.72;90.58
73910;BME280;62245;48.070;7.874;2023-05-10T03:36:28;98688.00;;;13.73;91.03
73910;BME280;62245;48.070;7.874;2023-05-10T03:38:53;98688.47;;;13.70;91.49
73910;BME280;62245;48.070;7.874;2023-05-10T03:41:18;98698.94;;;13.71;91.60
73910;BME280;62245;48.070;7.874;2023-05-10T03:43:44;98691.97;;;13.70;91.23
73910;BME280;62245;48.070;7.874;2023-05-10T03:46:09;98691.97;;;13.58;91.95
73910;BME280;62245;48.070;7.874;2023-05-10T03:48:34;98670.91;;;13.50;91.81
73910;BME280;62245;48.070;7.874;2023-05-10T03:51:00;98690.00;;;13.66;91.75
73910;BME280;62245;48.070;7.874;2023-05-10T03:53:25;98667.41;;;13.62;91.21
73910;BME280;62245;48.070;7.874;2023-05-10T03:55:50;98689.50;;;13.69;91.11
73910;BME280;62245;48.070;7.874;2023-05-10T03:58:15;98686.25;;;13.67;91.47
73910;BME280;62245;48.070;7.874;2023-05-10T04:00:41;98686.00;;;13.68;91.78
73910;BME280;62245;48.070;7.874;2023-05-10T04:03:09;98677.53;;;13.59;91.67
73910;BME280;62245;48.070;7.874;2023-05-10T04:05:35;98681.00;;;13.72;91.44
73910;BME280;62245;48.070;7.874;2023-05-10T04:08:01;98680.03;;;13.78;90.89
73910;BME280;62245;48.070;7.874;2023-05-10T04:10:27;98691.31;;;13.91;90.27
73910;BME280;62245;48.070;7.874;2023-05-10T04:12:52;98691.41;;;13.96;90.57
73910;BME280;62245;48.070;7.874;2023-05-10T04:15:17;98692.50;;;13.84;90.87
73910;BME280;62245;48.070;7.874;2023-05-10T04:17:43;98698.13;;;13.82;90.28
73910;BME280;62245;48.070;7.874;2023-05-10T04:20:08;98682.88;;;13.71;90.21
73910;BME280;62245;48.070;7.874;2023-05-10T04:22:34;98693.13;;;13.74;90.19
73910;BME280;62245;48.070;7.874;2023-05-10T04:24:59;98692.88;;;13.76;90.15
73910;BME280;62245;48.070;7.874;2023-05-10T04:27:24;98692.97;;;13.81;89.58
73910;BME280;62245;48.070;7.874;2023-05-10T04:29:50;98679.47;;;13.76;89.82
73910;BME280;62245;48.070;7.874;2023-05-10T04:32:15;98687.41;;;13.71;90.42
73910;BME280;62245;48.070;7.874;2023-05-10T04:34:42;98687.19;;;13.72;90.35
73910;BME280;62245;48.070;7.874;2023-05-10T04:37:08;98692.31;;;13.74;89.84
73910;BME280;62245;48.070;7.874;2023-05-10T04:39:33;98690.31;;;13.81;89.59
73910;BME280;62245;48.070;7.874;2023-05-10T04:41:58;98684.38;;;13.67;90.41
73910;BME280;62245;48.070;7.874;2023-05-10T04:44:24;98690.69;;;13.73;89.48
73910;BME280;62245;48.070;7.874;2023-05-10T04:46:49;98684.44;;;13.55;89.54
73910;BME280;62245;48.070;7.874;2023-05-10T04:49:14;98681.16;;;13.53;89.75
73910;BME280;62245;48.070;7.874;2023-05-10T04:51:40;98690.94;;;13.59;89.78
73910;BME280;62245;48.070;7.874;2023-05-10T04:54:05;98697.59;;;13.57;89.44
73910;BME280;62245;48.070;7.874;2023-05-10T04:56:30;98704.91;;;13.62;89.00
73910;BME280;62245;48.070;7.874;2023-05-10T04:58:55;98710.28;;;13.62;89.40
73910;BME280;62245;48.070;7.874;2023-05-10T05:01:21;98703.78;;;13.57;89.32
73910;BME280;62245;48.070;7.874;2023-05-10T05:03:48;98707.59;;;13.62;89.39
73910;BME280;62245;48.070;7.874;2023-05-10T05:06:13;98700.22;;;13.69;89.02
73910;BME280;62245;48.070;7.874;2023-05-10T05:08:38;98703.66;;;13.64;89.13
73910;BME280;62245;48.070;7.874;2023-05-10T05:11:03;98703.66;;;13.64;88.98
73910;BME280;62245;48.070;7.874;2023-05-10T05:13:29;98718.22;;;13.56;89.17
73910;BME280;62245;48.070;7.874;2023-05-10T05:15:54;98718.31;;;13.62;89.06
73910;BME280;62245;48.070;7.874;2023-05-10T05:18:19;98720.19;;;13.61;89.16
73910;BME280;62245;48.070;7.874;2023-05-10T05:20:45;98717.88;;;13.65;89.45
73910;BME280;62245;48.070;7.874;2023-05-10T05:23:10;98722.03;;;13.72;88.98
73910;BME280;62245;48.070;7.874;2023-05-10T05:25:35;98723.31;;;13.70;88.93
73910;BME280;62245;48.070;7.874;2023-05-10T05:28:01;98726.13;;;13.63;89.04
73910;BME280;62245;48.070;7.874;2023-05-10T05:30:26;98736.50;;;13.59;89.54
73910;BME280;62245;48.070;7.874;2023-05-10T05:32:52;98746.66;;;13.57;89.36
73910;BME280;62245;48.070;7.874;2023-05-10T05:35:17;98739.91;;;13.55;89.32
73910;BME280;62245;48.070;7.874;2023-05-10T05:37:42;98745.03;;;13.56;89.75
73910;BME280;62245;48.070;7.874;2023-05-10T05:40:08;98747.34;;;13.65;89.25
73910;BME280;62245;48.070;7.874;2023-05-10T05:42:33;98742.44;;;13.62;88.98
73910;BME280;62245;48.070;7.874;2023-05-10T05:44:58;98757.59;;;13.68;89.15
73910;BME280;62245;48.070;7.874;2023-05-10T05:47:24;98753.84;;;13.69;88.85
73910;BME280;62245;48.070;7.874;2023-05-10T05:49:50;98744.91;;;13.51;89.31
73910;BME280;62245;48.070;7.874;2023-05-10T05:52:15;98753.16;;;13.62;89.23
73910;BME280;62245;48.070;7.874;2023-05-10T05:54:40;98761.44;;;13.60;89.43
73910;BME280;62245;48.070;7.874;2023-05-10T05:57:06;98761.44;;;13.60;89.76
73910;BME280;62245;48.070;7.874;2023-05-10T05:59:31;98778.84;;;13.57;89.39
73910;BME280;62245;48.070;7.874;2023-05-10T06:01:56;98779.28;;;13.54;90.04
73910;BME280;62245;48.070;7.874;2023-05-10T06:04:22;98777.44;;;13.55;90.46
73910;BME280;62245;48.070;7.874;2023-05-10T06:06:47;98785.69;;;13.65;90.38
73910;BME280;62245;48.070;7.874;2023-05-10T06:09:12;98786.50;;;13.66;91.00
73910;BME280;62245;48.070;7.874;2023-05-10T06:11:37;98780.69;;;13.45;90.64
73910;BME280;62245;48.070;7.874;2023-05-10T06:14:04;98790.22;;;13.41;92.18
73910;BME280;62245;48.070;7.874;2023-05-10T06:16:30;98796.31;;;13.37;92.12
73910;BME280;62245;48.070;7.874;2023-05-10T06:18:55;98792.09;;;13.41;92.73
73910;BME280;62245;48.070;7.874;2023-05-10T06:21:21;98796.09;;;13.38;92.86
73910;BME280;62245;48.070;7.874;2023-05-10T06:23:46;98794.22;;;13.39;93.05
73910;BME280;62245;48.070;7.874;2023-05-10T06:26:11;98789.53;;;13.34;93.10
73910;BME280;62245;48.070;7.874;2023-05-10T06:28:36;98806.44;;;13.23;92.69
73910;BME280;62245;48.070;7.874;2023-05-10T06:31:04;98800.50;;;13.21;93.42
73910;BME280;62245;48.070;7.874;2023-05-10T06:33:30;98803.88;;;13.28;92.89
73910;BME280;62245;48.070;7.874;2023-05-10T06:35:55;98801.53;;;13.20;92.76
73910;BME280;62245;48.070;7.874;2023-05-10T06:38:21;98809.06;;;13.11;92.19
73910;BME280;62245;48.070;7.874;2023-05-10T06:40:46;98823.66;;;13.15;93.04
73910;BME280;62245;48.070;7.874;2023-05-10T06:43:11;98813.38;;;13.12;92.38
73910;BME280;62245;48.070;7.874;2023-05-10T06:45:37;98814.34;;;13.18;92.79
73910;BME280;62245;48.070;7.874;2023-05-10T06:48:02;98812.84;;;13.22;92.89
73910;BME280;62245;48.070;7.874;2023-05-10T06:50:27;98810.72;;;13.12;92.13
73910;BME280;62245;48.070;7.874;2023-05-10T06:52:52;98800.63;;;13.14;92.37
73910;BME280;62245;48.070;7.874;2023-05-10T06:55:18;98820.06;;;13.33;91.99
73910;BME280;62245;48.070;7.874;2023-05-10T06:57:43;98819.97;;;13.40;91.69
73910;BME280;62245;48.070;7.874;2023-05-10T07:00:09;98810.97;;;13.34;92.17
73910;BME280;62245;48.070;7.874;2023-05-10T07:02:35;98816.47;;;13.39;92.21
73910;BME280;62245;48.070;7.874;2023-05-10T07:05:01;98823.22;;;13.53;92.04
73910;BME280;62245;48.070;7.874;2023-05-10T07:07:27;98818.91;;;13.64;91.12
73910;BME280;62245;48.070;7.874;2023-05-10T07:09:52;98818.78;;;13.59;91.12
73910;BME280;62245;48.070;7.874;2023-05-10T07:12:18;98820.19;;;13.73;90.76
73910;BME280;62245;48.070;7.874;2023-05-10T07:14:43;98822.72;;;13.80;89.78
73910;BME280;62245;48.070;7.874;2023-05-10T07:17:09;98816.78;;;13.78;90.20
73910;BME280;62245;48.070;7.874;2023-05-10T07:19:34;98825.50;;;13.85;89.80
73910;BME280;62245;48.070;7.874;2023-05-10T07:22:01;98831.13;;;13.83;90.02
73910;BME280;62245;48.070;7.874;2023-05-10T07:24:26;98830.31;;;13.83;88.71
73910;BME280;62245;48.070;7.874;2023-05-10T07:26:52;98834.28;;;13.92;88.92
73910;BME280;62245;48.070;7.874;2023-05-10T07:29:17;98836.38;;;13.90;89.60
73910;BME280;62245;48.070;7.874;2023-05-10T07:31:42;98833.47;;;13.91;89.25
73910;BME280;62245;48.070;7.874;2023-05-10T07:34:08;98832.06;;;13.89;89.96
73910;BME280;62245;48.070;7.874;2023-05-10T07:36:34;98834.38;;;13.85;89.80
73910;BME280;62245;48.070;7.874;2023-05-10T07:38:59;98837.41;;;13.77;89.17
73910;BME280;62245;48.070;7.874;2023-05-10T07:41:24;98833.09;;;13.76;89.72
73910;BME280;62245;48.070;7.874;2023-05-10T07:43:49;98843.72;;;13.83;89.17
73910;BME280;62245;48.070;7.874;2023-05-10T07:46:15;98842.41;;;13.85;88.60
73910;BME280;62245;48.070;7.874;2023-05-10T07:48:40;98837.19;;;13.90;88.29
73910;BME280;62245;48.070;7.874;2023-05-10T07:51:05;98837.06;;;13.97;88.37
73910;BME280;62245;48.070;7.874;2023-05-10T07:53:32;98834.13;;;13.98;88.30
73910;BME280;62245;48.070;7.874;2023-05-10T07:55:58;98818.72;;;14.06;87.64
73910;BME280;62245;48.070;7.874;2023-05-10T07:58:24;98843.75;;;14.23;87.32
73910;BME280;62245;48.070;7.874;2023-05-10T08:00:49;98843.19;;;14.21;86.96
73910;BME280;62245;48.070;7.874;2023-05-10T08:03:15;98845.28;;;14.19;85.38
73910;BME280;62245;48.070;7.874;2023-05-10T08:05:40;98835.94;;;14.21;85.37
73910;BME280;62245;48.070;7.874;2023-05-10T08:08:06;98830.31;;;14.34;85.48
73910;BME280;62245;48.070;7.874;2023-05-10T08:10:31;98836.00;;;14.38;84.71
73910;BME280;62245;48.070;7.874;2023-05-10T08:12:56;98834.63;;;14.35;84.93
73910;BME280;62245;48.070;7.874;2023-05-10T08:15:23;98841.38;;;14.50;86.75
73910;BME280;62245;48.070;7.874;2023-05-10T08:17:49;98836.00;;;14.38;83.58
73910;BME280;62245;48.070;7.874;2023-05-10T08:20:14;98827.06;;;14.44;84.66
73910;BME280;62245;48.070;7.874;2023-05-10T08:22:42;98820.28;;;14.42;84.01
73910;BME280;62245;48.070;7.874;2023-05-10T08:25:07;98816.03;;;14.46;84.58
73910;BME280;62245;48.070;7.874;2023-05-10T08:27:33;98831.72;;;14.65;83.98
73910;BME280;62245;48.070;7.874;2023-05-10T08:29:58;98828.22;;;14.65;83.29
73910;BME280;62245;48.070;7.874;2023-05-10T08:32:23;98821.72;;;14.61;83.12
73910;BME280;62245;48.070;7.874;2023-05-10T08:34:48;98820.38;;;14.47;82.09
73910;BME280;62245;48.070;7.874;2023-05-10T08:37:14;98817.38;;;14.31;80.83
73910;BME280;62245;48.070;7.874;2023-05-10T08:39:39;98810.16;;;14.20;82.05
73910;BME280;62245;48.070;7.874;2023-05-10T08:42:05;98818.41;;;14.30;82.40
73910;BME280;62245;48.070;7.874;2023-05-10T08:44:35;98792.78;;;14.23;82.56
73910;BME280;62245;48.070;7.874;2023-05-10T08:47:06;98812.81;;;14.32;82.57
73910;BME280;62245;48.070;7.874;2023-05-10T08:49:34;98817.59;;;14.42;80.98
73910;BME280;62245;48.070;7.874;2023-05-10T08:52:02;98816.16;;;14.51;80.63
73910;BME280;62245;48.070;7.874;2023-05-10T08:54:29;98803.47;;;14.63;80.55
73910;BME280;62245;48.070;7.874;2023-05-10T08:56:55;98798.22;;;14.68;79.66
73910;BME280;62245;48.070;7.874;2023-05-10T08:59:21;98816.69;;;14.81;77.68
73910;BME280;62245;48.070;7.874;2023-05-10T09:01:47;98837.25;;;14.87;78.58
73910;BME280;62245;48.070;7.874;2023-05-10T09:04:14;98843.41;;;14.88;76.93
73910;BME280;62245;48.070;7.874;2023-05-10T09:06:39;98842.03;;;14.85;72.87
73910;BME280;62245;48.070;7.874;2023-05-10T09:09:05;98839.72;;;14.60;72.94
73910;BME280;62245;48.070;7.874;2023-05-10T09:11:30;98845.25;;;14.42;74.21
73910;BME280;62245;48.070;7.874;2023-05-10T09:13:56;98855.31;;;14.12;76.52
73910;BME280;62245;48.070;7.874;2023-05-10T09:16:22;98855.56;;;14.10;75.98
73910;BME280;62245;48.070;7.874;2023-05-10T09:18:48;98874.25;;;14.05;74.74
73910;BME280;62245;48.070;7.874;2023-05-10T09:21:14;98871.94;;;13.74;71.94
73910;BME280;62245;48.070;7.874;2023-05-10T09:23:45;98876.94;;;13.82;73.77
73910;BME280;62245;48.070;7.874;2023-05-10T09:26:12;98869.00;;;13.52;72.01
73910;BME280;62245;48.070;7.874;2023-05-10T09:28:57;98883.94;;;13.71;74.88
73910;BME280;62245;48.070;7.874;2023-05-10T09:31:24;98892.66;;;13.67;75.82
73910;BME280;62245;48.070;7.874;2023-05-10T09:33:50;98887.56;;;13.65;77.85
73910;BME280;62245;48.070;7.874;2023-05-10T09:36:16;98890.47;;;13.64;77.53
73910;BME280;62245;48.070;7.874;2023-05-10T09:38:49;98893.94;;;13.76;78.30
73910;BME280;62245;48.070;7.874;2023-05-10T09:41:22;98892.56;;;13.85;79.50
73910;BME280;62245;48.070;7.874;2023-05-10T09:43:47;98884.75;;;13.95;82.52
73910;BME280;62245;48.070;7.874;2023-05-10T09:46:14;98879.84;;;14.04;84.37
73910;BME280;62245;48.070;7.874;2023-05-10T09:48:45;98870.59;;;14.11;85.59
73910;BME280;62245;48.070;7.874;2023-05-10T09:51:14;98873.63;;;14.26;85.83
73910;BME280;62245;48.070;7.874;2023-05-10T09:53:43;98871.38;;;14.35;85.92
73910;BME280;62245;48.070;7.874;2023-05-10T09:56:08;98874.88;;;14.47;85.85
73910;BME280;62245;48.070;7.874;2023-05-10T09:58:36;98879.91;;;14.44;82.12
73910;BME280;62245;48.070;7.874;2023-05-10T10:01:03;98867.75;;;14.53;81.22
73910;BME280;62245;48.070;7.874;2023-05-10T10:03:28;98872.31;;;14.52;81.08
73910;BME280;62245;48.070;7.874;2023-05-10T10:05:55;98881.69;;;14.66;81.70
73910;BME280;62245;48.070;7.874;2023-05-10T10:08:21;98883.75;;;14.76;82.14
73910;BME280;62245;48.070;7.874;2023-05-10T10:10:47;98884.28;;;14.90;82.96
73910;BME280;62245;48.070;7.874;2023-05-10T10:13:12;98885.13;;;15.07;81.23
73910;BME280;62245;48.070;7.874;2023-05-10T10:15:38;98875.94;;;15.20;82.88
73910;BME280;62245;48.070;7.874;2023-05-10T10:18:04;98875.06;;;15.47;81.36
73910;BME280;62245;48.070;7.874;2023-05-10T10:20:30;98874.56;;;15.67;82.20
73910;BME280;62245;48.070;7.874;2023-05-10T10:22:56;98871.00;;;15.78;82.21
73910;BME280;62245;48.070;7.874;2023-05-10T10:25:21;98879.28;;;15.94;80.24
73910;BME280;62245;48.070;7.874;2023-05-10T10:27:59;98874.81;;;16.21;81.14
73910;BME280;62245;48.070;7.874;2023-05-10T10:30:37;98881.50;;;16.18;78.76
73910;BME280;62245;48.070;7.874;2023-05-10T10:35:48;98882.63;;;16.22;76.83
73910;BME280;62245;48.070;7.874;2023-05-10T10:38:13;98881.81;;;16.22;75.38
73910;BME280;62245;48.070;7.874;2023-05-10T10:40:39;98888.59;;;16.25;79.46
73910;BME280;62245;48.070;7.874;2023-05-10T10:43:23;98861.28;;;16.16;77.26
73910;BME280;62245;48.070;7.874;2023-05-10T10:46:14;98874.97;;;16.36;76.79
73910;BME280;62245;48.070;7.874;2023-05-10T10:48:41;98860.28;;;16.22;75.41
73910;BME280;62245;48.070;7.874;2023-05-10T10:51:13;98867.53;;;16.43;76.15
73910;BME280;62245;48.070;7.874;2023-05-10T10:53:39;98861.34;;;16.43;70.62
73910;BME280;62245;48.070;7.874;2023-05-10T10:56:12;98865.84;;;16.37;68.58
73910;BME280;62245;48.070;7.874;2023-05-10T10:58:40;98860.72;;;16.57;71.27
73910;BME280;62245;48.070;7.874;2023-05-10T11:01:14;98862.09;;;16.60;72.55
73910;BME280;62245;48.070;7.874;2023-05-10T11:03:40;98859.06;;;16.56;72.64
73910;BME280;62245;48.070;7.874;2023-05-10T11:06:05;98862.25;;;16.53;72.55
73910;BME280;62245;48.070;7.874;2023-05-10T11:08:32;98860.78;;;16.63;73.45
73910;BME280;62245;48.070;7.874;2023-05-10T11:18:37;98862.03;;;16.77;62.67
73910;BME280;62245;48.070;7.874;2023-05-10T11:21:03;98852.69;;;16.84;61.45
73910;BME280;62245;48.070;7.874;2023-05-10T11:26:13;98856.78;;;16.92;57.76
73910;BME280;62245;48.070;7.874;2023-05-10T11:28:45;98852.84;;;16.78;58.64
73910;BME280;62245;48.070;7.874;2023-05-10T11:31:16;98844.88;;;16.61;57.95
73910;BME280;62245;48.070;7.874;2023-05-10T11:33:51;98849.84;;;16.52;59.29
73910;BME280;62245;48.070;7.874;2023-05-10T11:36:18;98857.16;;;16.30;61.36
73910;BME280;62245;48.070;7.874;2023-05-10T11:38:44;98870.84;;;16.29;59.72
73910;BME280;62245;48.070;7.874;2023-05-10T11:41:10;98859.84;;;16.30;61.79
73910;BME280;62245;48.070;7.874;2023-05-10T11:43:37;98861.44;;;16.53;62.00
73910;BME280;62245;48.070;7.874;2023-05-10T11:46:04;98853.75;;;16.62;60.37
73910;BME280;62245;48.070;7.874;2023-05-10T11:48:31;98862.25;;;16.53;60.16
73910;BME280;62245;48.070;7.874;2023-05-10T11:50:56;98853.19;;;16.59;60.59
73910;BME280;62245;48.070;7.874;2023-05-10T11:53:23;98855.19;;;16.47;59.71
73910;BME280;62245;48.070;7.874;2023-05-10T11:55:50;98848.63;;;16.38;61.00
73910;BME280;62245;48.070;7.874;2023-05-10T11:58:17;98848.25;;;16.30;58.93
73910;BME280;62245;48.070;7.874;2023-05-10T12:00:43;98838.63;;;16.34;61.06
73910;BME280;62245;48.070;7.874;2023-05-10T12:03:08;98831.41;;;16.39;58.45
73910;BME280;62245;48.070;7.874;2023-05-10T12:05:35;98843.38;;;16.48;62.18
73910;BME280;62245;48.070;7.874;2023-05-10T12:08:14;98847.13;;;16.47;61.57
73910;BME280;62245;48.070;7.874;2023-05-10T12:10:41;98853.81;;;16.45;60.97
73910;BME280;62245;48.070;7.874;2023-05-10T12:13:11;98831.16;;;16.41;59.57
73910;BME280;62245;48.070;7.874;2023-05-10T12:15:38;98835.63;;;16.30;57.51
73910;BME280;62245;48.070;7.874;2023-05-10T12:18:03;98848.44;;;16.23;58.69
73910;BME280;62245;48.070;7.874;2023-05-10T12:20:30;98842.13;;;16.12;57.45
73910;BME280;62245;48.070;7.874;2023-05-10T12:22:57;98839.91;;;16.09;58.51
73910;BME280;62245;48.070;7.874;2023-05-10T12:25:24;98850.88;;;16.03;57.57
73910;BME280;62245;48.070;7.874;2023-05-10T12:27:56;98841.94;;;15.97;58.59
73910;BME280;62245;48.070;7.874;2023-05-10T12:30:25;98846.53;;;15.80;57.11
73910;BME280;62245;48.070;7.874;2023-05-10T12:32:51;98840.81;;;15.76;59.46
73910;BME280;62245;48.070;7.874;2023-05-10T12:35:17;98825.69;;;15.70;61.33
73910;BME280;62245;48.070;7.874;2023-05-10T12:37:45;98846.22;;;15.60;61.10
73910;BME280;62245;48.070;7.874;2023-05-10T12:40:11;98838.91;;;15.55;61.58
73910;BME280;62245;48.070;7.874;2023-05-10T12:42:38;98847.13;;;15.65;62.10
73910;BME280;62245;48.070;7.874;2023-05-10T12:45:07;98841.41;;;15.78;62.18
73910;BME280;62245;48.070;7.874;2023-05-10T12:47:33;98848.84;;;15.93;64.20
73910;BME280;62245;48.070;7.874;2023-05-10T12:50:00;98857.56;;;16.00;66.68
73910;BME280;62245;48.070;7.874;2023-05-10T12:52:25;98862.16;;;16.00;66.20
73910;BME280;62245;48.070;7.874;2023-05-10T12:54:51;98884.38;;;15.73;64.40
73910;BME280;62245;48.070;7.874;2023-05-10T12:57:17;98895.00;;;15.35;65.64
73910;BME280;62245;48.070;7.874;2023-05-10T12:59:42;98875.28;;;14.96;67.79
73910;BME280;62245;48.070;7.874;2023-05-10T13:02:08;98870.31;;;15.04;68.41
73910;BME280;62245;48.070;7.874;2023-05-10T13:04:34;98879.84;;;15.12;68.82
73910;BME280;62245;48.070;7.874;2023-05-10T13:06:59;98881.81;;;15.33;69.14
73910;BME280;62245;48.070;7.874;2023-05-10T13:09:25;98869.56;;;15.54;67.26
73910;BME280;62245;48.070;7.874;2023-05-10T13:11:51;98854.88;;;15.62;67.46
73910;BME280;62245;48.070;7.874;2023-05-10T13:14:18;98883.22;;;15.69;66.17
73910;BME280;62245;48.070;7.874;2023-05-10T13:16:45;98877.13;;;15.74;64.84
73910;BME280;62245;48.070;7.874;2023-05-10T13:19:10;98873.13;;;15.60;65.09
73910;BME280;62245;48.070;7.874;2023-05-10T13:21:36;98889.91;;;15.67;65.43
73910;BME280;62245;48.070;7.874;2023-05-10T13:24:01;98877.03;;;15.69;64.84
73910;BME280;62245;48.070;7.874;2023-05-10T13:26:27;98871.25;;;15.60;65.40
73910;BME280;62245;48.070;7.874;2023-05-10T13:28:53;98877.50;;;15.66;64.30
73910;BME280;62245;48.070;7.874;2023-05-10T13:31:20;98884.78;;;15.65;64.47
73910;BME280;62245;48.070;7.874;2023-05-10T13:33:45;98885.44;;;15.56;59.99
73910;BME280;62245;48.070;7.874;2023-05-10T13:36:11;98877.38;;;15.56;60.45
73910;BME280;62245;48.070;7.874;2023-05-10T13:38:36;98892.44;;;15.73;62.85
73910;BME280;62245;48.070;7.874;2023-05-10T13:41:02;98871.19;;;15.55;62.04
73910;BME280;62245;48.070;7.874;2023-05-10T13:43:28;98875.22;;;15.58;62.99
73910;BME280;62245;48.070;7.874;2023-05-10T13:45:54;98877.00;;;15.52;62.12
73910;BME280;62245;48.070;7.874;2023-05-10T13:48:19;98881.59;;;15.68;64.59
73910;BME280;62245;48.070;7.874;2023-05-10T13:50:45;98873.59;;;15.90;64.31
73910;BME280;62245;48.070;7.874;2023-05-10T13:53:11;98873.03;;;16.10;60.71
73910;BME280;62245;48.070;7.874;2023-05-10T13:55:36;98866.00;;;16.09;59.63
73910;BME280;62245;48.070;7.874;2023-05-10T13:58:01;98854.75;;;16.12;59.80
73910;BME280;62245;48.070;7.874;2023-05-10T14:00:26;98850.44;;;16.11;59.64
73910;BME280;62245;48.070;7.874;2023-05-10T14:02:52;98849.50;;;16.22;59.86
73910;BME280;62245;48.070;7.874;2023-05-10T14:05:17;98845.88;;;16.33;59.03
73910;BME280;62245;48.070;7.874;2023-05-10T14:07:42;98852.63;;;16.36;59.42
73910;BME280;62245;48.070;7.874;2023-05-10T14:10:08;98847.50;;;16.56;60.60
73910;BME280;62245;48.070;7.874;2023-05-10T14:12:33;98847.09;;;16.69;60.07
73910;BME280;62245;48.070;7.874;2023-05-10T14:14:58;98846.63;;;16.72;59.57
73910;BME280;62245;48.070;7.874;2023-05-10T14:17:24;98850.63;;;16.70;59.99
73910;BME280;62245;48.070;7.874;2023-05-10T14:19:49;98847.16;;;16.52;59.30
73910;BME280;62245;48.070;7.874;2023-05-10T14:22:14;98847.47;;;16.78;57.09
73910;BME280;62245;48.070;7.874;2023-05-10T14:24:40;98859.72;;;16.90;58.49
73910;BME280;62245;48.070;7.874;2023-05-10T14:27:05;98849.09;;;16.79;54.09
73910;BME280;62245;48.070;7.874;2023-05-10T14:29:31;98849.09;;;16.79;55.36
73910;BME280;62245;48.070;7.874;2023-05-10T14:31:56;98854.94;;;16.71;55.90
73910;BME280;62245;48.070;7.874;2023-05-10T14:34:21;98856.13;;;16.36;55.96
73910;BME280;62245;48.070;7.874;2023-05-10T14:36:46;98848.88;;;16.37;57.23
73910;BME280;62245;48.070;7.874;2023-05-10T14:39:12;98832.72;;;16.58;58.37
73910;BME280;62245;48.070;7.874;2023-05-10T14:41:38;98858.91;;;16.41;57.82
73910;BME280;62245;48.070;7.874;2023-05-10T14:44:06;98837.25;;;16.31;57.49
73910;BME280;62245;48.070;7.874;2023-05-10T14:46:31;98860.41;;;16.32;58.11
73910;BME280;62245;48.070;7.874;2023-05-10T14:48:56;98827.13;;;16.16;57.94
73910;BME280;62245;48.070;7.874;2023-05-10T14:51:21;98846.00;;;16.00;58.55
73910;BME280;62245;48.070;7.874;2023-05-10T14:53:48;98846.97;;;15.94;59.08
73910;BME280;62245;48.070;7.874;2023-05-10T14:56:14;98836.59;;;16.02;58.11
73910;BME280;62245;48.070;7.874;2023-05-10T14:58:39;98833.84;;;16.19;59.16
73910;BME280;62245;48.070;7.874;2023-05-10T15:01:04;98844.50;;;16.31;58.16
73910;BME280;62245;48.070;7.874;2023-05-10T15:03:30;98840.78;;;16.37;57.52
73910;BME280;62245;48.070;7.874;2023-05-10T15:05:55;98831.97;;;16.41;58.23
73910;BME280;62245;48.070;7.874;2023-05-10T15:08:22;98828.06;;;16.54;58.79
73910;BME280;62245;48.070;7.874;2023-05-10T15:10:48;98832.03;;;16.46;58.76
73910;BME280;62245;48.070;7.874;2023-05-10T15:13:14;98830.41;;;16.45;58.96
73910;BME280;62245;48.070;7.874;2023-05-10T15:15:39;98824.88;;;16.57;58.04
73910;BME280;62245;48.070;7.874;2023-05-10T15:18:04;98824.56;;;16.53;58.55
73910;BME280;62245;48.070;7.874;2023-05-10T15:20:30;98831.09;;;16.57;58.41
73910;BME280;62245;48.070;7.874;2023-05-10T15:22:55;98831.75;;;16.70;58.85
73910;BME280;62245;48.070;7.874;2023-05-10T15:25:21;98839.78;;;16.86;57.02
73910;BME280;62245;48.070;7.874;2023-05-10T15:27:47;98845.19;;;16.65;56.48
73910;BME280;62245;48.070;7.874;2023-05-10T15:30:13;98833.50;;;16.81;56.95
73910;BME280;62245;48.070;7.874;2023-05-10T15:32:38;98841.13;;;16.89;56.52
73910;BME280;62245;48.070;7.874;2023-05-10T15:35:05;98842.41;;;16.81;56.90
73910;BME280;62245;48.070;7.874;2023-05-10T15:37:31;98844.13;;;16.66;57.89
73910;BME280;62245;48.070;7.874;2023-05-10T15:39:56;98852.31;;;16.54;57.69
73910;BME280;62245;48.070;7.874;2023-05-10T15:42:28;98845.63;;;16.56;58.35
73910;BME280;62245;48.070;7.874;2023-05-10T15:44:53;98847.47;;;16.78;58.67
73910;BME280;62245;48.070;7.874;2023-05-10T15:47:18;98852.16;;;16.87;55.65
73910;BME280;62245;48.070;7.874;2023-05-10T15:49:44;98841.78;;;17.01;57.56
73910;BME280;62245;48.070;7.874;2023-05-10T15:52:09;98834.88;;;17.10;57.20
73910;BME280;62245;48.070;7.874;2023-05-10T15:54:34;98842.34;;;17.03;55.30
73910;BME280;62245;48.070;7.874;2023-05-10T15:57:00;98839.59;;;16.98;55.85
73910;BME280;62245;48.070;7.874;2023-05-10T15:59:25;98850.91;;;16.95;56.72
73910;BME280;62245;48.070;7.874;2023-05-10T16:01:51;98852.34;;;16.81;57.04
73910;BME280;62245;48.070;7.874;2023-05-10T16:04:16;98835.16;;;16.60;56.27
73910;BME280;62245;48.070;7.874;2023-05-10T16:06:42;98835.94;;;16.34;56.87
73910;BME280;62245;48.070;7.874;2023-05-10T16:09:07;98842.75;;;16.41;58.57